createdAt,value
2023-01-11T00:02:21.640Z,6.98
2023-01-11T00:04:49.356Z,7.00
2023-01-11T00:07:16.601Z,7.02
2023-01-11T00:09:43.802Z,7.05
2023-01-11T00:12:11.053Z,7.07
2023-01-11T00:14:38.253Z,7.06
2023-01-11T00:17:06.918Z,7.06
2023-01-11T00:19:34.091Z,7.07
2023-01-11T00:22:01.352Z,7.06
2023-01-11T00:24:28.632Z,7.06
2023-01-11T00:26:55.876Z,7.10
2023-01-11T00:29:23.212Z,7.13
2023-01-11T00:31:50.512Z,7.18
2023-01-11T00:34:19.338Z,7.16
2023-01-11T00:36:46.712Z,7.17
2023-01-11T00:39:13.899Z,7.19
2023-01-11T00:41:41.135Z,7.25
2023-01-11T00:44:10.265Z,7.28
2023-01-11T00:46:37.658Z,7.33
2023-01-11T00:49:04.840Z,7.40
2023-01-11T00:51:33.499Z,7.39
2023-01-11T00:54:00.769Z,7.44
2023-01-11T00:56:28.016Z,7.48
2023-01-11T00:58:55.233Z,7.45
2023-01-11T01:01:22.618Z,7.44
2023-01-11T01:03:49.884Z,7.46
2023-01-11T01:06:17.117Z,7.45
2023-01-11T01:08:45.745Z,7.46
2023-01-11T01:11:13.101Z,7.48
2023-01-11T01:13:40.342Z,7.54
2023-01-11T01:16:08.033Z,7.55
2023-01-11T01:18:35.265Z,7.57
2023-01-11T01:21:02.500Z,7.64
2023-01-11T01:23:29.741Z,7.61
2023-01-11T01:25:58.337Z,7.64
2023-01-11T01:28:25.542Z,7.66
2023-01-11T01:30:52.897Z,7.68
2023-01-11T01:33:21.255Z,7.67
2023-01-11T01:35:48.780Z,7.71
2023-01-11T01:38:16.433Z,7.75
2023-01-11T01:40:45.544Z,7.77
2023-01-11T01:43:16.106Z,7.78
2023-01-11T01:45:43.798Z,7.80
2023-01-11T01:48:15.716Z,7.81
2023-01-11T01:50:47.568Z,7.80
2023-01-11T01:53:18.667Z,7.84
2023-01-11T01:55:50.914Z,7.83
2023-01-11T01:58:25.595Z,7.83
2023-01-11T02:00:53.274Z,7.84
2023-01-11T02:03:25.054Z,7.85
2023-01-11T02:05:53.501Z,7.88
2023-01-11T02:08:28.816Z,7.91
2023-01-11T02:10:56.169Z,7.91
2023-01-11T02:13:25.296Z,7.95
2023-01-11T02:15:52.621Z,7.95
2023-01-11T02:18:19.926Z,7.97
2023-01-11T02:21:08.813Z,8.00
2023-01-11T02:24:02.512Z,8.02
2023-01-11T02:27:11.529Z,8.04
2023-01-11T02:29:52.609Z,8.08
2023-01-11T02:32:26.763Z,8.10
2023-01-11T02:35:10.076Z,8.15
2023-01-11T02:37:46.894Z,8.20
2023-01-11T02:40:21.535Z,8.21
2023-01-11T02:42:53.193Z,8.30
2023-01-11T02:45:34.443Z,8.34
2023-01-11T02:48:10.313Z,8.35
2023-01-11T02:50:42.655Z,8.40
2023-01-11T02:53:16.722Z,8.39
2023-01-11T02:55:48.234Z,8.48
2023-01-11T02:58:19.896Z,8.55
2023-01-11T03:00:50.254Z,8.56
2023-01-11T03:03:20.405Z,8.53
2023-01-11T03:05:52.489Z,8.57
2023-01-11T03:08:30.483Z,8.63
2023-01-11T03:11:04.126Z,8.69
2023-01-11T03:13:49.836Z,8.67
2023-01-11T03:16:32.584Z,8.68
2023-01-11T03:19:19.153Z,8.73
2023-01-11T03:21:55.064Z,8.71
2023-01-11T03:24:30.946Z,8.73
2023-01-11T03:27:10.264Z,8.69
2023-01-11T03:29:43.632Z,8.67
2023-01-11T03:32:20.755Z,8.65
2023-01-11T03:34:57.534Z,8.66
2023-01-11T03:37:31.122Z,8.68
2023-01-11T03:40:03.904Z,8.68
2023-01-11T03:42:34.035Z,8.73
2023-01-11T03:45:03.363Z,8.71
2023-01-11T03:47:34.522Z,8.75
2023-01-11T03:50:05.564Z,8.72
2023-01-11T03:52:36.025Z,8.68
2023-01-11T03:55:06.086Z,8.73
2023-01-11T03:57:36.245Z,8.74
2023-01-11T04:00:05.856Z,8.71
2023-01-11T04:02:38.869Z,8.71
2023-01-11T04:05:07.148Z,8.74
2023-01-11T04:07:34.328Z,8.75
2023-01-11T04:10:01.864Z,8.79
2023-01-11T04:12:29.116Z,8.77
2023-01-11T04:14:56.340Z,8.83
2023-01-11T04:17:23.630Z,8.79
2023-01-11T04:19:52.243Z,8.79
2023-01-11T04:22:19.464Z,8.81
2023-01-11T04:24:46.836Z,8.84
2023-01-11T04:27:14.071Z,8.86
2023-01-11T04:29:41.290Z,8.88
2023-01-11T04:32:08.547Z,8.95
2023-01-11T04:34:35.773Z,8.98
2023-01-11T04:37:04.364Z,9.02
2023-01-11T04:39:31.650Z,9.08
2023-01-11T04:41:58.822Z,9.07
2023-01-11T04:44:26.174Z,9.09
2023-01-11T04:46:53.457Z,9.15
2023-01-11T04:49:20.646Z,9.14
2023-01-11T04:51:47.853Z,9.16
2023-01-11T04:54:17.131Z,9.17
2023-01-11T04:56:44.340Z,9.18
2023-01-11T04:59:11.623Z,9.21
2023-01-11T05:01:38.829Z,9.27
2023-01-11T05:04:06.180Z,9.25
2023-01-11T05:06:33.634Z,9.28
2023-01-11T05:09:00.923Z,9.25
2023-01-11T05:11:29.502Z,9.33
2023-01-11T05:13:56.731Z,9.33
2023-01-11T05:16:24.347Z,9.39
2023-01-11T05:18:53.016Z,9.39
2023-01-11T05:21:22.606Z,9.41
2023-01-11T05:23:50.323Z,9.44
2023-01-11T05:26:19.267Z,9.43
2023-01-11T05:28:47.950Z,9.39
2023-01-11T05:31:15.626Z,9.43
2023-01-11T05:33:43.175Z,9.45
2023-01-11T05:36:12.901Z,9.47
2023-01-11T05:38:40.246Z,9.53
2023-01-11T05:41:10.001Z,9.52
2023-01-11T05:43:37.982Z,9.54
2023-01-11T05:46:06.684Z,9.52
2023-01-11T05:48:33.973Z,9.54
2023-01-11T05:51:01.666Z,9.52
2023-01-11T05:53:28.970Z,9.54
2023-01-11T05:55:57.927Z,9.54
2023-01-11T05:58:26.660Z,9.58
2023-01-11T06:00:55.742Z,9.62
2023-01-11T06:03:25.386Z,9.65
2023-01-11T06:05:53.099Z,9.65
2023-01-11T06:08:20.908Z,9.63
2023-01-11T06:10:51.515Z,9.66
2023-01-11T06:13:19.008Z,9.70
2023-01-11T06:15:46.265Z,9.68
2023-01-11T06:18:14.412Z,9.63
2023-01-11T06:20:42.971Z,9.67
2023-01-11T06:23:10.247Z,9.70
2023-01-11T06:25:37.537Z,9.75
2023-01-11T06:28:05.099Z,9.74
2023-01-11T06:30:32.403Z,9.79
2023-01-11T06:32:59.659Z,9.77
2023-01-11T06:35:26.810Z,9.75
2023-01-11T06:37:55.401Z,9.78
2023-01-11T06:40:22.617Z,9.80
2023-01-11T06:42:49.853Z,9.84
2023-01-11T06:45:17.258Z,9.84
2023-01-11T06:47:44.504Z,9.87
2023-01-11T06:50:11.900Z,9.93
2023-01-11T06:52:39.192Z,9.86
2023-01-11T06:55:09.098Z,9.93
2023-01-11T06:57:36.338Z,9.92
2023-01-11T07:00:04.464Z,9.95
2023-01-11T07:02:32.074Z,9.92
2023-01-11T07:04:59.378Z,9.95
2023-01-11T07:07:26.648Z,9.99
2023-01-11T07:09:53.858Z,10.01
2023-01-11T07:12:22.491Z,10.04
2023-01-11T07:14:49.745Z,10.08
2023-01-11T07:17:16.963Z,10.08
2023-01-11T07:19:44.165Z,10.07
2023-01-11T07:22:11.646Z,10.06
2023-01-11T07:24:38.839Z,10.10
2023-01-11T07:27:06.079Z,10.12
2023-01-11T07:29:34.706Z,10.13
2023-01-11T07:32:01.943Z,10.12
2023-01-11T07:34:29.154Z,10.12
2023-01-11T07:36:56.443Z,10.16
2023-01-11T07:39:34.789Z,10.12
2023-01-11T07:42:10.973Z,10.12
2023-01-11T07:44:39.557Z,10.13
2023-01-11T07:47:06.806Z,10.15
2023-01-11T07:49:34.051Z,10.15
2023-01-11T07:52:01.297Z,10.18
2023-01-11T07:54:28.484Z,10.16
2023-01-11T07:56:55.785Z,10.05
2023-01-11T07:59:22.988Z,9.78
2023-01-11T08:01:51.704Z,9.69
2023-01-11T08:04:19.055Z,9.59
2023-01-11T08:06:46.329Z,9.50
2023-01-11T08:09:13.510Z,9.36
2023-01-11T08:11:40.848Z,9.25
2023-01-11T08:14:10.392Z,9.22
2023-01-11T08:16:37.973Z,9.21
2023-01-11T08:19:06.602Z,9.20
2023-01-11T08:21:33.814Z,9.25
2023-01-11T08:24:01.014Z,9.23
2023-01-11T08:26:28.287Z,9.21
2023-01-11T08:28:55.539Z,9.15
2023-01-11T08:31:23.080Z,9.11
2023-01-11T08:33:50.390Z,9.13
2023-01-11T08:36:19.168Z,9.17
2023-01-11T08:38:46.443Z,9.17
2023-01-11T08:41:13.765Z,9.18
2023-01-11T08:43:41.707Z,9.19
2023-01-11T08:46:09.845Z,9.18
2023-01-11T08:48:37.299Z,9.18
2023-01-11T08:51:04.728Z,9.27
2023-01-11T08:53:33.654Z,9.27
2023-01-11T08:56:01.214Z,9.31
2023-01-11T08:58:28.418Z,9.27
2023-01-11T09:00:57.765Z,9.35
2023-01-11T09:03:25.077Z,9.37
2023-01-11T09:05:52.333Z,9.33
2023-01-11T09:08:19.575Z,9.35
2023-01-11T09:10:48.189Z,9.47
2023-01-11T09:13:15.544Z,9.41
2023-01-11T09:15:42.916Z,9.45
2023-01-11T09:18:10.120Z,9.49
2023-01-11T09:20:37.338Z,9.46
2023-01-11T09:23:04.598Z,9.48
2023-01-11T09:25:31.925Z,9.51
2023-01-11T09:28:00.489Z,9.50
2023-01-11T09:30:27.756Z,9.48
2023-01-11T09:32:54.944Z,9.51
2023-01-11T09:35:22.172Z,9.57
2023-01-11T09:37:49.665Z,9.64
2023-01-11T09:40:20.770Z,9.68
2023-01-11T09:42:49.964Z,9.81
2023-01-11T09:45:21.494Z,9.79
2023-01-11T09:47:52.363Z,9.83
2023-01-11T09:50:23.220Z,9.85
2023-01-11T09:52:53.418Z,9.90
2023-01-11T09:55:32.284Z,9.88
2023-01-11T09:58:25.356Z,9.99
2023-01-11T10:01:03.082Z,10.04
2023-01-11T10:04:02.168Z,10.11
2023-01-11T10:06:39.786Z,10.17
2023-01-11T10:18:30.327Z,10.22
2023-01-11T10:18:39.530Z,10.28
2023-01-11T10:21:11.580Z,10.33
2023-01-11T10:23:47.440Z,10.29
2023-01-11T10:26:23.097Z,10.30
2023-01-11T10:28:54.151Z,10.34
2023-01-11T10:31:22.423Z,10.41
2023-01-11T10:33:54.663Z,10.36
2023-01-11T10:36:29.391Z,10.39
2023-01-11T10:39:02.397Z,10.47
2023-01-11T10:41:36.613Z,10.53
2023-01-11T10:44:14.551Z,10.57
2023-01-11T10:46:45.599Z,10.54
2023-01-11T10:49:29.494Z,10.53
2023-01-11T10:52:00.543Z,10.54
2023-01-11T10:54:30.555Z,10.65
2023-01-11T10:57:13.517Z,10.76
2023-01-11T11:00:06.303Z,10.67
2023-01-11T11:02:48.622Z,10.78
2023-01-11T11:05:30.399Z,10.78
2023-01-11T11:08:05.376Z,10.78
2023-01-11T11:10:38.071Z,10.77
2023-01-11T11:13:13.548Z,10.77
2023-01-11T11:15:48.089Z,10.75
2023-01-11T11:18:15.300Z,10.83
2023-01-11T11:20:43.911Z,10.76
2023-01-11T11:23:15.616Z,10.80
2023-01-11T11:25:47.933Z,10.78
2023-01-11T11:28:26.753Z,10.81
2023-01-11T11:30:56.599Z,10.75
2023-01-11T11:33:33.913Z,10.74
2023-01-11T11:36:04.343Z,10.67
2023-01-11T11:38:33.637Z,10.68
2023-01-11T11:41:06.240Z,10.55
2023-01-11T11:43:34.967Z,10.60
2023-01-11T11:46:03.949Z,10.51
2023-01-11T11:48:33.406Z,10.48
2023-01-11T11:51:05.427Z,10.47
2023-01-11T11:53:39.915Z,10.49
2023-01-11T11:56:21.200Z,10.44
2023-01-11T11:58:49.086Z,10.42
2023-01-11T12:01:23.707Z,10.40
2023-01-11T12:03:52.577Z,10.43
2023-01-11T12:06:26.368Z,10.43
2023-01-11T12:08:54.997Z,10.36
2023-01-11T12:11:29.144Z,10.40
2023-01-11T12:14:03.974Z,10.42
2023-01-11T12:16:35.499Z,10.29
2023-01-11T12:19:02.818Z,10.39
2023-01-11T12:21:31.462Z,10.46
2023-01-11T12:24:10.398Z,10.39
2023-01-11T12:26:44.171Z,10.55
2023-01-11T12:29:35.518Z,10.78
2023-01-11T12:32:13.733Z,11.53
2023-01-11T12:35:09.918Z,12.19
2023-01-11T12:38:04.155Z,12.78
2023-01-11T12:40:39.811Z,13.00
2023-01-11T12:43:23.880Z,13.58
2023-01-11T12:46:01.152Z,13.65
2023-01-11T12:48:42.323Z,13.62
2023-01-11T12:51:21.235Z,13.31
2023-01-11T12:54:02.399Z,13.11
2023-01-11T12:56:43.347Z,12.97
2023-01-11T12:59:28.354Z,12.68
2023-01-11T13:02:03.033Z,11.86
2023-01-11T13:04:47.211Z,11.77
2023-01-11T13:07:29.247Z,12.10
2023-01-11T13:10:15.656Z,11.67
2023-01-11T13:12:49.448Z,11.57
2023-01-11T13:15:27.376Z,11.13
2023-01-11T13:17:59.819Z,10.92
2023-01-11T13:20:59.425Z,10.84
2023-01-11T13:23:36.146Z,10.66
2023-01-11T13:26:16.343Z,10.69
2023-01-11T13:28:46.370Z,10.91
2023-01-11T13:31:14.836Z,11.21
2023-01-11T13:33:47.626Z,11.38
2023-01-11T13:36:23.562Z,11.66
2023-01-11T13:38:58.025Z,11.41
2023-01-11T13:41:31.113Z,12.11
2023-01-11T13:44:02.282Z,12.01
2023-01-11T13:46:43.658Z,12.25
2023-01-11T13:49:20.311Z,12.39
2023-01-11T13:51:53.847Z,11.76
2023-01-11T13:54:26.894Z,11.75
2023-01-11T13:57:00.079Z,10.99
2023-01-11T13:59:31.554Z,10.82
2023-01-11T14:02:04.649Z,10.65
2023-01-11T14:04:44.697Z,10.54
2023-01-11T14:07:23.686Z,10.99
2023-01-11T14:10:13.856Z,11.48
2023-01-11T14:13:03.646Z,11.47
2023-01-11T14:15:38.010Z,11.06
2023-01-11T14:18:27.922Z,10.93
2023-01-11T14:21:05.959Z,10.84
2023-01-11T14:23:42.057Z,11.20
2023-01-11T14:26:38.383Z,11.37
2023-01-11T14:29:35.184Z,11.33
2023-01-11T14:32:18.054Z,11.48
2023-01-11T14:35:18.693Z,11.75
2023-01-11T14:38:15.937Z,11.54
2023-01-11T14:41:13.563Z,10.99
2023-01-11T14:44:00.959Z,10.70
2023-01-11T14:47:03.623Z,10.32
2023-01-11T14:49:48.543Z,10.21
2023-01-11T14:52:19.897Z,10.11
2023-01-11T14:54:52.139Z,9.90
2023-01-11T14:57:36.696Z,9.81
2023-01-11T15:00:05.386Z,9.75
2023-01-11T15:02:32.608Z,9.70
2023-01-11T15:05:09.321Z,9.60
2023-01-11T15:07:40.843Z,9.53
2023-01-11T15:10:38.731Z,9.42
2023-01-11T15:13:10.645Z,9.38
2023-01-11T15:15:37.932Z,9.32
2023-01-11T15:18:05.591Z,9.27
2023-01-11T15:20:34.197Z,9.24
2023-01-11T15:23:03.815Z,9.24
2023-01-11T15:25:33.937Z,9.22
2023-01-11T15:28:05.141Z,9.15
2023-01-11T15:30:38.578Z,9.16
2023-01-11T15:33:28.116Z,9.08
2023-01-11T15:36:03.222Z,9.06
2023-01-11T15:38:34.577Z,9.05
2023-01-11T15:41:03.493Z,9.07
2023-01-11T15:43:59.547Z,9.07
2023-01-11T15:46:48.850Z,9.14
2023-01-11T15:50:09.719Z,9.20
2023-01-11T15:53:10.344Z,9.11
2023-01-11T15:56:12.496Z,9.14
2023-01-11T15:59:04.824Z,9.07
2023-01-11T16:01:49.560Z,9.03
2023-01-11T16:04:25.182Z,9.00
2023-01-11T16:06:57.248Z,8.97
2023-01-11T16:09:51.298Z,8.90
2023-01-11T16:12:44.507Z,8.83
2023-01-11T16:15:38.016Z,8.86
2023-01-11T16:18:12.617Z,8.76
2023-01-11T16:20:42.394Z,8.74
2023-01-11T16:23:18.424Z,8.75
2023-01-11T16:25:46.740Z,8.73
2023-01-11T16:28:16.404Z,8.82
2023-01-11T16:30:44.164Z,8.82
2023-01-11T16:33:15.734Z,8.70
2023-01-11T16:35:43.133Z,8.71
2023-01-11T16:38:16.755Z,8.64
2023-01-11T16:40:48.962Z,8.67
2023-01-11T16:43:21.683Z,8.67
2023-01-11T16:45:50.479Z,8.57
2023-01-11T16:48:19.416Z,8.58
2023-01-11T16:50:58.344Z,8.61
2023-01-11T16:53:27.082Z,8.64
2023-01-11T16:55:57.535Z,8.65
2023-01-11T16:58:28.866Z,8.68
2023-01-11T17:00:58.912Z,8.76
2023-01-11T17:03:27.861Z,8.71
2023-01-11T17:06:01.393Z,8.69
2023-01-11T17:08:31.826Z,8.65
2023-01-11T17:11:02.977Z,8.62
2023-01-11T17:13:50.599Z,8.55
2023-01-11T17:16:19.611Z,8.53
2023-01-11T17:18:47.011Z,8.60
2023-01-11T17:21:18.515Z,8.54
2023-01-11T17:23:47.236Z,8.50
2023-01-11T17:26:18.228Z,8.46
2023-01-11T17:28:48.545Z,8.39
2023-01-11T17:31:22.969Z,8.34
2023-01-11T17:34:00.660Z,8.32
2023-01-11T17:36:28.389Z,8.34
2023-01-11T17:38:57.049Z,8.28
2023-01-11T17:41:26.849Z,8.31
2023-01-11T17:43:55.814Z,8.32
2023-01-11T17:46:24.185Z,8.30
2023-01-11T17:48:53.420Z,8.23
2023-01-11T17:51:26.089Z,8.24
2023-01-11T17:53:53.631Z,8.22
2023-01-11T17:56:37.640Z,8.15
2023-01-11T17:59:19.326Z,8.19
2023-01-11T18:01:48.408Z,8.17
2023-01-11T18:04:20.642Z,8.13
2023-01-11T18:06:50.115Z,8.18
2023-01-11T18:09:24.503Z,8.14
2023-01-11T18:11:52.863Z,8.18
2023-01-11T18:14:25.370Z,8.07
2023-01-11T18:17:01.041Z,8.06
2023-01-11T18:19:34.314Z,8.04
2023-01-11T18:22:01.738Z,8.07
2023-01-11T18:24:38.064Z,8.20
2023-01-11T18:27:23.173Z,8.23
2023-01-11T18:29:52.461Z,8.15
2023-01-11T18:32:20.207Z,8.17
2023-01-11T18:34:51.031Z,8.07
2023-01-11T18:37:18.410Z,8.10
2023-01-11T18:39:45.964Z,8.11
2023-01-11T18:42:18.754Z,8.04
2023-01-11T18:44:47.420Z,7.99
2023-01-11T18:47:18.410Z,8.00
2023-01-11T18:49:46.621Z,8.00
2023-01-11T18:52:13.897Z,7.91
2023-01-11T18:54:41.843Z,7.93
2023-01-11T18:57:09.463Z,7.91
2023-01-11T18:59:36.792Z,7.96
2023-01-11T19:02:17.714Z,7.95
2023-01-11T19:04:46.832Z,7.98
2023-01-11T19:07:14.720Z,8.03
2023-01-11T19:09:42.187Z,8.00
2023-01-11T19:12:09.408Z,8.06
2023-01-11T19:14:36.750Z,7.95
2023-01-11T19:17:04.040Z,7.87
2023-01-11T19:19:31.616Z,7.83
2023-01-11T19:22:00.242Z,7.75
2023-01-11T19:24:27.560Z,7.75
2023-01-11T19:26:54.862Z,7.69
2023-01-11T19:29:22.324Z,7.67
2023-01-11T19:31:49.620Z,7.63
2023-01-11T19:34:17.015Z,7.64
2023-01-11T19:36:44.223Z,7.73
2023-01-11T19:39:12.830Z,7.74
2023-01-11T19:41:40.033Z,7.67
2023-01-11T19:44:07.382Z,7.56
2023-01-11T19:46:34.734Z,7.63
2023-01-11T19:49:02.078Z,7.66
2023-01-11T19:51:29.344Z,7.68
2023-01-11T19:53:56.740Z,7.65
2023-01-11T19:56:25.379Z,7.69
2023-01-11T19:58:52.636Z,7.69
2023-01-11T20:01:19.883Z,7.67
2023-01-11T20:03:47.157Z,7.65
2023-01-11T20:06:14.498Z,7.66
2023-01-11T20:08:41.820Z,7.66
2023-01-11T20:11:11.414Z,7.67
2023-01-11T20:13:40.497Z,7.67
2023-01-11T20:16:09.984Z,7.78
2023-01-11T20:18:37.298Z,7.84
2023-01-11T20:21:05.019Z,7.86
2023-01-11T20:23:33.283Z,7.84
2023-01-11T20:26:01.480Z,7.85
2023-01-11T20:28:29.536Z,7.83
2023-01-11T20:31:00.204Z,7.85
2023-01-11T20:33:29.325Z,7.97
2023-01-11T20:35:56.623Z,7.96
2023-01-11T20:38:24.027Z,8.00
2023-01-11T20:40:51.483Z,7.99
2023-01-11T20:43:18.805Z,8.01
2023-01-11T20:45:54.684Z,8.06
2023-01-11T20:48:23.329Z,8.11
2023-01-11T20:50:50.641Z,8.21
2023-01-11T20:53:17.990Z,8.22
2023-01-11T20:55:45.422Z,8.25
2023-01-11T20:58:12.729Z,8.30
2023-01-11T21:00:39.950Z,8.34
2023-01-11T21:03:07.232Z,8.31
2023-01-11T21:05:38.082Z,8.37
2023-01-11T21:08:05.523Z,8.43
2023-01-11T21:10:32.773Z,8.33
2023-01-11T21:15:26.129Z,8.45
2023-01-11T21:17:53.438Z,8.45
2023-01-11T21:20:20.647Z,8.54
2023-01-11T21:22:49.307Z,8.67
2023-01-11T21:25:16.600Z,8.68
2023-01-11T21:27:43.824Z,8.70
2023-01-11T21:30:11.721Z,8.71
2023-01-11T21:32:38.962Z,8.76
2023-01-11T21:35:06.733Z,8.71
2023-01-11T21:37:34.113Z,8.64
2023-01-11T21:40:02.843Z,8.59
2023-01-11T21:42:30.185Z,8.60
2023-01-11T21:44:57.427Z,8.58
2023-01-11T21:47:24.749Z,8.53
2023-01-11T21:49:51.928Z,8.43
2023-01-11T21:52:19.181Z,8.44
2023-01-11T21:54:46.430Z,8.43
2023-01-11T21:57:15.101Z,8.40
2023-01-11T21:59:42.365Z,8.33
2023-01-11T22:02:09.998Z,8.44
2023-01-11T22:04:37.436Z,8.41
2023-01-11T22:07:04.759Z,8.37
2023-01-11T22:09:32.096Z,8.36
2023-01-11T22:11:59.419Z,8.38
2023-01-11T22:14:27.985Z,8.32
2023-01-11T22:16:55.214Z,8.18
2023-01-11T22:19:22.529Z,8.14
2023-01-11T22:21:49.802Z,8.05
2023-01-11T22:24:17.121Z,8.05
2023-01-11T22:26:44.502Z,8.01
2023-01-11T22:29:11.866Z,7.96
2023-01-11T22:31:42.065Z,7.96
2023-01-11T22:34:09.966Z,7.94
2023-01-11T22:36:37.666Z,7.96
2023-01-11T22:39:05.457Z,7.98
2023-01-11T22:41:32.934Z,7.97
2023-01-11T22:44:00.175Z,7.99
2023-01-11T22:46:28.182Z,8.00
2023-01-11T22:48:56.761Z,8.01
2023-01-11T22:51:25.515Z,8.01
2023-01-11T22:53:54.640Z,8.08
2023-01-11T22:56:24.369Z,8.09
2023-01-11T22:58:52.634Z,8.11
2023-01-11T23:01:22.007Z,8.13
2023-01-11T23:03:50.073Z,8.17
2023-01-11T23:06:21.205Z,8.19
2023-01-11T23:08:48.693Z,8.15
2023-01-11T23:11:17.822Z,8.14
2023-01-11T23:13:45.083Z,8.21
2023-01-11T23:16:14.923Z,8.21
2023-01-11T23:18:42.353Z,8.23
2023-01-11T23:21:09.655Z,8.27
2023-01-11T23:23:38.310Z,8.27
2023-01-11T23:26:06.216Z,8.29
2023-01-11T23:28:33.586Z,8.35
2023-01-11T23:31:07.936Z,8.39
2023-01-11T23:33:35.251Z,8.42
2023-01-11T23:36:02.465Z,8.44
2023-01-11T23:38:32.025Z,8.42
2023-01-11T23:41:06.415Z,8.42
2023-01-11T23:43:36.312Z,8.47
2023-01-11T23:46:06.435Z,8.48
2023-01-11T23:48:33.774Z,8.52
2023-01-11T23:51:03.559Z,8.52
2023-01-11T23:53:30.855Z,8.60
2023-01-11T23:55:58.198Z,8.59
2023-01-11T23:58:26.822Z,8.62
